Time;durP1;ratioP1;P1;durP2;ratioP2;P2;SDS_P1;SDS_P2;PMS_P1;PMS_P2;Temp;Humidity;BMP_temperature;BMP_pressure;BME280_temperature;BME280_humidity;BME280_pressure;Samples;Min_cycle;Max_cycle;Signal;HPM_P1;HPM_P2
2021/11/05 00:00:51;;;;;;;7.18;6.35;;;6.10;99.90;;;;;;5031647;28;20075;-65
2021/11/05 00:03:17;;;;;;;9.93;6.47;;;6.10;99.90;;;;;;5031618;28;20033;-64
2021/11/05 00:05:43;;;;;;;7.30;6.03;;;6.10;99.90;;;;;;5030944;28;20053;-64
2021/11/05 00:08:08;;;;;;;7.57;5.63;;;6.10;99.90;;;;;;5031293;28;20104;-63
2021/11/05 00:10:40;;;;;;;6.43;5.82;;;6.10;99.90;;;;;;5031638;28;20029;-63
2021/11/05 00:13:06;;;;;;;8.27;6.75;;;6.00;99.90;;;;;;5031757;28;20454;-64
2021/11/05 00:15:32;;;;;;;9.05;6.90;;;6.00;99.90;;;;;;5031022;28;20032;-65
2021/11/05 00:17:58;;;;;;;9.27;7.28;;;6.10;99.90;;;;;;5031458;28;20100;-65
2021/11/05 00:20:25;;;;;;;8.77;6.68;;;6.10;99.90;;;;;;5031487;28;20531;-65
2021/11/05 00:22:50;;;;;;;6.57;5.90;;;6.10;99.90;;;;;;5031445;28;20036;-64
2021/11/05 00:25:17;;;;;;;8.40;6.00;;;6.10;99.90;;;;;;5031072;28;20102;-63
2021/11/05 00:27:43;;;;;;;6.90;6.20;;;6.10;99.90;;;;;;5032452;28;20531;-65
2021/11/05 00:30:11;;;;;;;7.43;6.35;;;6.00;99.90;;;;;;5032128;28;20117;-62
2021/11/05 00:32:38;;;;;;;9.23;6.15;;;5.90;99.90;;;;;;5030652;28;20029;-63
2021/11/05 00:35:05;;;;;;;8.43;6.25;;;6.00;99.90;;;;;;5029834;28;20022;-64
2021/11/05 00:37:30;;;;;;;7.43;6.60;;;6.00;99.90;;;;;;5031083;28;20025;-64
2021/11/05 00:39:56;;;;;;;7.00;5.47;;;6.00;99.90;;;;;;5030579;28;20036;-64
2021/11/05 00:42:22;;;;;;;13.48;6.05;;;6.00;99.90;;;;;;5031511;28;20029;-64
2021/11/05 00:44:48;;;;;;;8.32;6.25;;;6.00;99.90;;;;;;5030200;28;20372;-64
2021/11/05 00:47:15;;;;;;;6.88;5.35;;;6.10;99.90;;;;;;5031090;28;20076;-64
2021/11/05 00:49:41;;;;;;;5.63;5.05;;;6.10;99.90;;;;;;5031671;28;20045;-63
2021/11/05 00:52:08;;;;;;;4.53;4.07;;;6.10;99.90;;;;;;5031091;28;20017;-65
2021/11/05 00:54:33;;;;;;;4.47;4.00;;;6.30;99.90;;;;;;5029863;28;20022;-66
2021/11/05 00:56:59;;;;;;;5.93;4.18;;;6.10;99.90;;;;;;5030680;28;20052;-64
2021/11/05 00:59:25;;;;;;;3.95;3.53;;;6.10;99.90;;;;;;5030975;28;20107;-64
2021/11/05 01:01:51;;;;;;;3.90;3.50;;;6.20;99.90;;;;;;5030614;28;20386;-65
2021/11/05 01:04:16;;;;;;;4.30;3.83;;;6.10;99.90;;;;;;5032461;28;20036;-65
2021/11/05 01:06:42;;;;;;;3.90;3.60;;;6.20;99.90;;;;;;5035828;28;20025;-65
2021/11/05 01:09:08;;;;;;;3.90;3.58;;;6.30;99.90;;;;;;5034894;28;20025;-64
2021/11/05 01:11:39;;;;;;;4.07;3.67;;;6.30;99.90;;;;;;5034373;28;20030;-65
2021/11/05 01:14:05;;;;;;;3.70;3.38;;;6.40;99.90;;;;;;5037565;28;20117;-65
2021/11/05 01:16:31;;;;;;;4.15;3.72;;;6.30;99.90;;;;;;5040454;28;20041;-64
2021/11/05 01:18:56;;;;;;;3.85;3.35;;;6.30;99.90;;;;;;5046785;28;20041;-65
2021/11/05 01:21:23;;;;;;;3.83;3.53;;;6.30;99.90;;;;;;5040069;28;20026;-65
2021/11/05 01:23:49;;;;;;;3.35;3.05;;;6.40;99.90;;;;;;5040311;28;20041;-64
2021/11/05 01:26:15;;;;;;;4.68;3.67;;;6.40;99.90;;;;;;5038933;28;20037;-64
2021/11/05 01:28:40;;;;;;;5.13;3.97;;;6.40;99.90;;;;;;5034627;28;20468;-63
2021/11/05 01:31:06;;;;;;;4.15;3.78;;;6.30;99.90;;;;;;5035696;28;20129;-65
2021/11/05 01:33:32;;;;;;;5.25;4.38;;;6.30;99.90;;;;;;5036159;28;20097;-65
2021/11/05 01:35:58;;;;;;;4.00;3.60;;;6.30;99.90;;;;;;5033553;28;20021;-62
2021/11/05 01:38:24;;;;;;;5.25;3.58;;;6.30;99.90;;;;;;5033360;28;20468;-64
2021/11/05 01:40:49;;;;;;;4.18;3.72;;;6.30;99.90;;;;;;5034041;28;20372;-62
2021/11/05 01:43:16;;;;;;;4.75;3.95;;;6.30;99.90;;;;;;5033570;28;20036;-65
2021/11/05 01:45:43;;;;;;;4.18;3.78;;;6.30;99.90;;;;;;5032725;28;20091;-64
2021/11/05 01:48:09;;;;;;;6.03;4.05;;;6.20;99.90;;;;;;5033491;28;20030;-65
2021/11/05 01:50:35;;;;;;;4.45;3.95;;;6.30;99.90;;;;;;5033579;28;20488;-65
2021/11/05 01:53:01;;;;;;;6.07;4.22;;;6.30;99.90;;;;;;5033324;28;20101;-65
2021/11/05 01:55:27;;;;;;;4.72;4.25;;;6.20;99.90;;;;;;5033012;28;20025;-64
2021/11/05 01:57:54;;;;;;;6.28;4.50;;;6.20;99.90;;;;;;5034639;28;20021;-65
2021/11/05 02:00:23;;;;;;;4.45;4.05;;;6.20;99.90;;;;;;5034638;28;20034;-63
2021/11/05 02:02:50;;;;;;;4.50;4.10;;;6.20;99.90;;;;;;5034735;28;20030;-64
2021/11/05 02:05:17;;;;;;;6.85;5.45;;;6.20;99.90;;;;;;5033176;28;20032;-64
2021/11/05 02:07:46;;;;;;;5.20;4.70;;;6.20;99.90;;;;;;5032938;28;20033;-65
2021/11/05 02:10:13;;;;;;;5.13;4.63;;;6.10;99.90;;;;;;5033706;28;20022;-64
2021/11/05 02:12:38;;;;;;;5.30;4.55;;;6.00;99.90;;;;;;5033629;28;20385;-64
2021/11/05 02:15:06;;;;;;;5.07;4.68;;;6.10;99.90;;;;;;5032121;28;20025;-64
2021/11/05 02:17:33;;;;;;;4.63;4.30;;;6.10;99.90;;;;;;5033403;28;20498;-64
2021/11/05 02:20:00;;;;;;;5.00;4.47;;;6.10;99.90;;;;;;5032836;28;20037;-64
2021/11/05 02:22:26;;;;;;;4.88;4.47;;;6.10;99.90;;;;;;5032930;28;20056;-64
2021/11/05 02:24:54;;;;;;;4.78;4.32;;;6.10;99.90;;;;;;5032206;28;20040;-64
2021/11/05 02:27:20;;;;;;;4.78;4.38;;;6.00;99.90;;;;;;5033026;28;20607;-63
2021/11/05 02:29:46;;;;;;;4.88;4.45;;;6.00;99.90;;;;;;5032513;28;20029;-66
2021/11/05 02:32:12;;;;;;;7.03;5.00;;;6.00;99.90;;;;;;5033348;28;20044;-63
2021/11/05 02:34:38;;;;;;;5.57;5.05;;;6.00;99.90;;;;;;5032819;28;20499;-65
2021/11/05 02:37:05;;;;;;;5.00;4.50;;;6.00;99.90;;;;;;5033483;28;20029;-65
2021/11/05 02:39:33;;;;;;;5.43;4.50;;;5.90;99.90;;;;;;5032692;28;20372;-64
2021/11/05 02:42:00;;;;;;;5.82;5.10;;;5.90;99.90;;;;;;5033134;28;20021;-64
2021/11/05 02:44:26;;;;;;;5.30;4.78;;;5.90;99.90;;;;;;5032671;28;20026;-63
2021/11/05 02:46:54;;;;;;;5.80;4.88;;;5.90;99.90;;;;;;5033461;28;20059;-64
2021/11/05 02:49:20;;;;;;;6.28;5.18;;;5.90;99.90;;;;;;5033155;28;20435;-64
2021/11/05 02:51:48;;;;;;;5.82;4.43;;;6.00;99.90;;;;;;5033232;28;20029;-65
2021/11/05 02:54:14;;;;;;;5.00;4.57;;;6.00;99.90;;;;;;5032881;28;20032;-65
2021/11/05 02:56:40;;;;;;;5.47;4.97;;;6.00;99.90;;;;;;5032900;28;20021;-66
2021/11/05 02:59:06;;;;;;;4.90;4.50;;;6.00;99.90;;;;;;5032848;28;20609;-65
2021/11/05 03:01:33;;;;;;;5.13;4.72;;;6.00;99.90;;;;;;5033027;28;20403;-64
2021/11/05 03:04:02;;;;;;;5.60;4.50;;;6.00;99.90;;;;;;5032651;28;20017;-65
2021/11/05 03:06:32;;;;;;;5.15;4.65;;;5.90;99.90;;;;;;5032065;28;20499;-65
2021/11/05 03:08:58;;;;;;;5.13;4.68;;;6.30;99.90;;;;;;5032477;28;20021;-64
2021/11/05 03:11:23;;;;;;;6.60;4.80;;;5.90;99.90;;;;;;5032555;28;20091;-64
2021/11/05 03:13:49;;;;;;;5.18;4.65;;;5.80;99.90;;;;;;5032352;28;20460;-65
2021/11/05 03:16:15;;;;;;;5.53;4.55;;;5.80;99.90;;;;;;5031844;28;20018;-63
2021/11/05 03:18:42;;;;;;;3.97;3.67;;;6.00;99.90;;;;;;5032416;28;20395;-63
2021/11/05 03:21:08;;;;;;;5.68;4.57;;;5.80;99.90;;;;;;5032571;28;20117;-63
2021/11/05 03:23:35;;;;;;;4.80;4.35;;;5.80;99.90;;;;;;5046831;28;20033;-63
2021/11/05 03:26:01;;;;;;;5.10;4.60;;;5.90;99.90;;;;;;5035048;28;20118;-62
2021/11/05 03:28:26;;;;;;;4.60;4.20;;;5.80;99.90;;;;;;5032389;28;20037;-63
2021/11/05 03:30:52;;;;;;;6.65;4.57;;;5.80;99.90;;;;;;5030951;28;20113;-62
2021/11/05 03:33:17;;;;;;;5.03;4.53;;;5.80;99.90;;;;;;5032374;28;20163;-63
2021/11/05 03:35:43;;;;;;;5.15;4.65;;;5.80;99.90;;;;;;5031530;28;20033;-64
2021/11/05 03:38:09;;;;;;;6.13;4.95;;;5.80;99.90;;;;;;5031632;28;20030;-65
2021/11/05 03:40:36;;;;;;;4.38;3.97;;;5.80;99.90;;;;;;5030870;28;20037;-63
2021/11/05 03:43:02;;;;;;;6.07;4.60;;;5.90;99.90;;;;;;5032011;28;20037;-64
2021/11/05 03:45:28;;;;;;;6.18;4.93;;;6.00;99.90;;;;;;5031159;28;20037;-64
2021/11/05 03:47:53;;;;;;;6.88;4.63;;;5.90;99.90;;;;;;5031993;28;20079;-64
2021/11/05 03:50:20;;;;;;;9.25;4.90;;;5.90;99.90;;;;;;5031659;28;20037;-63
2021/11/05 03:52:46;;;;;;;5.13;4.60;;;5.90;99.90;;;;;;5031585;28;20459;-64
2021/11/05 03:55:12;;;;;;;5.10;4.43;;;5.90;99.90;;;;;;5031335;28;20021;-65
2021/11/05 03:57:37;;;;;;;4.78;4.38;;;5.90;99.90;;;;;;5031630;28;20045;-65
2021/11/05 04:00:06;;;;;;;5.88;5.07;;;6.00;99.90;;;;;;5031759;28;20140;-64
2021/11/05 04:02:32;;;;;;;5.00;4.60;;;5.90;99.90;;;;;;5031840;28;20475;-64
2021/11/05 04:04:58;;;;;;;7.88;4.60;;;5.90;99.90;;;;;;5031023;28;20084;-64
2021/11/05 04:07:23;;;;;;;4.95;4.45;;;5.90;99.90;;;;;;5031998;28;20025;-64
2021/11/05 04:09:49;;;;;;;5.63;5.05;;;5.80;99.90;;;;;;5030240;28;20028;-64
2021/11/05 04:12:15;;;;;;;4.80;4.40;;;5.80;99.90;;;;;;5031697;28;20090;-64
2021/11/05 04:14:41;;;;;;;5.43;4.85;;;5.90;99.90;;;;;;5030858;28;20028;-64
2021/11/05 04:17:07;;;;;;;6.97;4.85;;;5.90;99.90;;;;;;5031846;28;20029;-64
2021/11/05 04:19:33;;;;;;;6.10;5.50;;;5.90;99.90;;;;;;5031506;28;20028;-64
2021/11/05 04:21:59;;;;;;;5.38;4.78;;;5.80;99.90;;;;;;5031544;28;20044;-65
2021/11/05 04:24:24;;;;;;;5.68;5.18;;;5.90;99.90;;;;;;5030705;28;20029;-64
2021/11/05 04:26:50;;;;;;;5.72;5.22;;;5.90;99.90;;;;;;5031272;28;20030;-64
2021/11/05 04:29:17;;;;;;;5.10;4.60;;;5.90;99.90;;;;;;5031485;28;20476;-64
2021/11/05 04:31:44;;;;;;;5.95;5.38;;;5.90;99.90;;;;;;5030192;28;20025;-65
2021/11/05 04:34:10;;;;;;;6.68;5.78;;;6.10;99.90;;;;;;5030451;28;20030;-66
2021/11/05 04:36:36;;;;;;;5.05;4.55;;;5.90;99.90;;;;;;5030612;28;20491;-65
2021/11/05 04:39:03;;;;;;;5.43;4.93;;;5.90;99.90;;;;;;5026811;28;20029;-70
2021/11/05 04:41:29;;;;;;;5.85;5.32;;;6.00;99.90;;;;;;5031246;28;20033;-68
2021/11/05 04:43:54;;;;;;;6.97;5.28;;;6.00;99.90;;;;;;5036871;28;20036;-70
2021/11/05 04:46:20;;;;;;;5.60;5.00;;;6.10;99.90;;;;;;5024128;28;20455;-70
2021/11/05 04:48:46;;;;;;;5.78;5.18;;;6.10;99.90;;;;;;5034396;28;20037;-71
2021/11/05 04:51:11;;;;;;;6.75;5.22;;;6.00;99.90;;;;;;5034852;28;20036;-69
2021/11/05 04:53:37;;;;;;;5.28;4.78;;;6.40;99.90;;;;;;5034978;28;20632;-70
2021/11/05 04:56:04;;;;;;;5.07;4.63;;;6.00;99.90;;;;;;5034435;28;20423;-70
2021/11/05 04:58:29;;;;;;;7.88;5.18;;;6.10;99.90;;;;;;5034829;28;20448;-70
2021/11/05 05:00:55;;;;;;;4.80;4.35;;;6.10;99.90;;;;;;5035217;28;20053;-69
2021/11/05 05:03:21;;;;;;;5.55;4.32;;;6.30;99.90;;;;;;5035203;28;20100;-70
2021/11/05 05:05:47;;;;;;;4.80;4.30;;;6.00;99.90;;;;;;5034359;28;20491;-70
2021/11/05 05:08:12;;;;;;;4.55;4.13;;;6.00;99.90;;;;;;5034335;28;20040;-71
2021/11/05 05:10:38;;;;;;;4.80;4.40;;;6.10;99.90;;;;;;5034823;28;20025;-70
2021/11/05 05:13:04;;;;;;;5.55;4.28;;;6.10;99.90;;;;;;5035010;28;20030;-71
2021/11/05 05:15:29;;;;;;;4.45;4.07;;;6.00;99.90;;;;;;5034348;28;20029;-71
2021/11/05 05:17:55;;;;;;;4.53;4.13;;;6.10;99.90;;;;;;5034505;28;20096;-71
2021/11/05 05:20:22;;;;;;;4.50;4.10;;;6.20;99.90;;;;;;5034763;28;20072;-71
2021/11/05 05:22:48;;;;;;;5.10;4.70;;;6.30;99.90;;;;;;5033197;28;20040;-73
2021/11/05 05:25:16;;;;;;;5.40;4.90;;;6.10;99.90;;;;;;5033846;28;20108;-71
2021/11/05 05:27:42;;;;;;;5.78;5.30;;;6.20;99.90;;;;;;5034101;28;20458;-70
2021/11/05 05:30:12;;;;;;;5.82;5.20;;;6.20;99.90;;;;;;5034493;28;20064;-70
2021/11/05 05:32:42;;;;;;;5.95;5.45;;;6.10;99.90;;;;;;5033482;28;20068;-67
2021/11/05 05:35:08;;;;;;;5.40;4.90;;;6.10;99.90;;;;;;5033538;28;20029;-68
2021/11/05 05:37:34;;;;;;;6.82;5.22;;;6.10;99.90;;;;;;5032868;28;20042;-68
2021/11/05 05:40:00;;;;;;;6.20;5.45;;;6.10;99.90;;;;;;5034003;28;20087;-70
2021/11/05 05:42:25;;;;;;;5.95;5.38;;;6.00;99.90;;;;;;5034518;28;20471;-69
2021/11/05 05:44:51;;;;;;;6.28;5.68;;;6.10;99.90;;;;;;5033142;28;20041;-70
2021/11/05 05:47:17;;;;;;;8.20;5.05;;;6.00;99.90;;;;;;5033882;28;20021;-69
2021/11/05 05:49:42;;;;;;;6.15;5.22;;;6.00;99.90;;;;;;5033689;28;20479;-69
2021/11/05 05:52:08;;;;;;;4.93;4.50;;;6.00;99.90;;;;;;5034262;28;20033;-70
2021/11/05 05:54:34;;;;;;;5.60;4.85;;;6.00;99.90;;;;;;5032919;28;20021;-70
2021/11/05 05:57:00;;;;;;;6.90;5.80;;;6.10;99.90;;;;;;5033936;28;20036;-70
2021/11/05 05:59:26;;;;;;;5.78;4.88;;;6.10;99.90;;;;;;5033406;28;20040;-69
2021/11/05 06:01:52;;;;;;;5.22;4.72;;;6.10;99.90;;;;;;5033802;28;20033;-70
2021/11/05 06:14:31;;;;;;;6.13;5.47;;;6.20;99.90;;;;;;5033695;28;20056;-79
2021/11/05 06:16:56;;;;;;;17.23;6.15;;;6.20;99.90;;;;;;5033558;28;20029;-68
2021/11/05 06:19:22;;;;;;;7.03;5.53;;;6.20;99.90;;;;;;5032969;28;20029;-68
2021/11/05 06:21:48;;;;;;;6.13;5.53;;;6.30;99.90;;;;;;5033715;28;20037;-69
2021/11/05 06:24:13;;;;;;;6.15;5.55;;;6.20;99.90;;;;;;5033243;28;20494;-69
2021/11/05 06:26:39;;;;;;;5.88;5.28;;;6.30;99.90;;;;;;5032550;28;20021;-71
2021/11/05 06:29:05;;;;;;;5.47;4.97;;;6.20;99.90;;;;;;5032981;28;20139;-71
2021/11/05 06:31:33;;;;;;;10.30;5.38;;;6.30;99.90;;;;;;5033161;28;20037;-71
2021/11/05 06:34:00;;;;;;;5.63;5.05;;;6.30;99.90;;;;;;5033440;28;20044;-71
2021/11/05 06:36:26;;;;;;;6.97;5.57;;;6.20;99.90;;;;;;5032191;28;20022;-71
2021/11/05 06:38:52;;;;;;;5.95;5.35;;;6.30;99.90;;;;;;5032446;28;20028;-71
2021/11/05 06:41:19;;;;;;;6.32;4.82;;;6.40;99.90;;;;;;5030780;28;20036;-63
2021/11/05 06:43:45;;;;;;;5.80;5.25;;;6.40;99.90;;;;;;5035329;28;20036;-65
2021/11/05 06:46:12;;;;;;;6.00;5.43;;;6.40;99.90;;;;;;5032243;28;20037;-65
2021/11/05 06:48:37;;;;;;;6.15;5.55;;;6.40;99.90;;;;;;5019180;28;20033;-63
2021/11/05 06:51:04;;;;;;;5.28;4.78;;;6.50;99.90;;;;;;5013445;28;20036;-65
2021/11/05 06:53:29;;;;;;;5.45;4.95;;;6.40;99.90;;;;;;5012018;28;20026;-65
2021/11/05 06:55:55;;;;;;;5.93;4.85;;;6.40;99.90;;;;;;5020559;28;20028;-66
2021/11/05 06:58:21;;;;;;;6.68;4.95;;;6.50;99.90;;;;;;5033023;28;20683;-65
2021/11/05 07:00:49;;;;;;;5.75;4.95;;;6.40;99.90;;;;;;5032799;28;20056;-65
2021/11/05 07:03:15;;;;;;;9.40;4.82;;;6.40;99.90;;;;;;5032626;28;20021;-66
2021/11/05 07:05:41;;;;;;;5.57;5.07;;;6.50;99.90;;;;;;5028891;28;20068;-65
2021/11/05 07:08:07;;;;;;;4.65;4.25;;;6.50;99.90;;;;;;5030879;28;20049;-66
2021/11/05 07:10:33;;;;;;;4.90;4.40;;;6.50;99.90;;;;;;5032484;28;20035;-64
2021/11/05 07:12:59;;;;;;;5.88;4.40;;;6.70;99.90;;;;;;5032294;28;20119;-71
2021/11/05 07:15:25;;;;;;;4.95;4.55;;;6.70;99.90;;;;;;5033272;28;20109;-71
2021/11/05 07:17:51;;;;;;;4.97;4.47;;;6.70;99.90;;;;;;5033832;28;20048;-71
2021/11/05 07:20:16;;;;;;;4.97;4.47;;;6.80;99.90;;;;;;5035242;28;20042;-71
2021/11/05 07:22:44;;;;;;;5.20;4.70;;;6.70;99.90;;;;;;5025489;28;20030;-71
2021/11/05 07:25:11;;;;;;;5.68;4.30;;;6.70;99.90;;;;;;5014306;28;20059;-71
2021/11/05 07:27:38;;;;;;;5.68;5.07;;;6.90;99.90;;;;;;5012639;28;20017;-71
2021/11/05 07:30:08;;;;;;;8.05;4.40;;;6.90;99.90;;;;;;5011724;28;20105;-71
2021/11/05 07:32:34;;;;;;;8.65;6.95;;;6.90;99.90;;;;;;5022505;28;20025;-70
2021/11/05 07:35:00;;;;;;;6.78;6.13;;;7.00;99.90;;;;;;5030614;28;20038;-70
2021/11/05 07:37:25;;;;;;;7.20;5.18;;;6.90;99.90;;;;;;5032585;28;20468;-70
2021/11/05 07:39:51;;;;;;;5.70;4.95;;;7.20;99.90;;;;;;5031655;28;20029;-71
2021/11/05 07:42:17;;;;;;;5.57;5.07;;;6.90;99.90;;;;;;5031819;28;20018;-71
2021/11/05 07:44:43;;;;;;;8.50;5.13;;;7.00;99.90;;;;;;5029893;28;20468;-71
2021/11/05 07:47:10;;;;;;;5.03;4.50;;;7.00;99.90;;;;;;5031900;28;20104;-71
2021/11/05 07:49:37;;;;;;;8.65;4.55;;;7.10;99.90;;;;;;5031979;28;20112;-71
2021/11/05 07:52:04;;;;;;;5.25;4.43;;;7.10;99.90;;;;;;5031567;28;20036;-71
2021/11/05 07:54:30;;;;;;;5.07;4.68;;;7.20;99.90;;;;;;5031293;28;20049;-78
2021/11/05 07:56:55;;;;;;;6.95;4.85;;;7.20;99.90;;;;;;5031936;28;20056;-73
2021/11/05 07:59:21;;;;;;;6.13;4.60;;;7.40;99.90;;;;;;5031904;28;20527;-73
2021/11/05 08:01:47;;;;;;;4.40;4.00;;;7.30;99.90;;;;;;5031941;28;20053;-72
2021/11/05 08:04:12;;;;;;;7.88;4.40;;;7.50;99.90;;;;;;5030490;28;20609;-72
2021/11/05 08:06:38;;;;;;;4.38;4.00;;;7.40;99.90;;;;;;5029682;28;20120;-74
2021/11/05 08:09:05;;;;;;;5.05;4.35;;;7.40;99.90;;;;;;5031395;28;20075;-72
2021/11/05 08:11:32;;;;;;;5.38;4.65;;;7.40;99.90;;;;;;5031643;28;20033;-72
2021/11/05 08:13:59;;;;;;;5.50;4.38;;;7.60;99.90;;;;;;5031904;28;20017;-74
2021/11/05 08:16:25;;;;;;;7.80;4.72;;;7.50;99.90;;;;;;5031257;28;20484;-73
2021/11/05 08:18:51;;;;;;;4.72;4.22;;;7.60;99.90;;;;;;5014200;28;20032;-73
2021/11/05 08:21:17;;;;;;;5.45;4.35;;;7.60;99.90;;;;;;5031537;28;20037;-73
2021/11/05 08:23:44;;;;;;;5.07;4.57;;;7.50;99.90;;;;;;5031444;28;20376;-73
2021/11/05 08:26:10;;;;;;;6.10;4.57;;;7.50;99.90;;;;;;5030805;28;20026;-73
2021/11/05 08:28:38;;;;;;;4.53;4.13;;;7.60;99.90;;;;;;5031869;28;20467;-72
2021/11/05 08:31:04;;;;;;;4.65;4.25;;;7.60;99.90;;;;;;5031633;28;20404;-73
2021/11/05 08:33:30;;;;;;;4.43;4.03;;;7.60;99.90;;;;;;5031601;28;20495;-74
2021/11/05 08:35:56;;;;;;;4.93;4.43;;;7.70;99.90;;;;;;5030553;28;20056;-72
2021/11/05 08:38:24;;;;;;;5.70;4.32;;;7.80;99.90;;;;;;5031299;28;20104;-73
2021/11/05 08:40:54;;;;;;;4.72;4.32;;;7.90;99.90;;;;;;5030994;28;20018;-73
2021/11/05 08:43:22;;;;;;;4.72;4.28;;;8.00;99.90;;;;;;5031180;28;20108;-73
2021/11/05 08:45:49;;;;;;;6.05;4.53;;;8.10;99.90;;;;;;5030839;28;20069;-73
2021/11/05 08:48:15;;;;;;;5.65;5.05;;;8.20;99.90;;;;;;5031643;28;20111;-73
2021/11/05 08:50:43;;;;;;;4.47;4.03;;;8.10;99.90;;;;;;5031360;28;20395;-73
2021/11/05 08:53:08;;;;;;;7.85;4.85;;;8.00;99.90;;;;;;5030383;28;20041;-74
2021/11/05 08:55:37;;;;;;;5.28;4.75;;;8.10;99.90;;;;;;5031108;28;20037;-72
2021/11/05 08:58:03;;;;;;;6.82;4.68;;;7.90;99.90;;;;;;5031788;28;20022;-73
2021/11/05 09:00:32;;;;;;;5.60;4.90;;;8.00;99.90;;;;;;5031637;28;20496;-73
2021/11/05 09:02:59;;;;;;;5.32;4.50;;;7.90;99.90;;;;;;5031793;28;20021;-73
2021/11/05 09:05:25;;;;;;;6.07;4.20;;;7.80;99.90;;;;;;5030957;28;20465;-74
2021/11/05 09:07:51;;;;;;;7.20;5.35;;;7.80;99.90;;;;;;5031040;28;20029;-74
2021/11/05 09:10:17;;;;;;;7.82;4.43;;;7.80;99.90;;;;;;5030636;28;20025;-71
2021/11/05 09:12:43;;;;;;;4.97;4.50;;;8.00;99.90;;;;;;5032213;28;20033;-73
2021/11/05 09:15:13;;;;;;;5.85;5.22;;;8.00;99.90;;;;;;5039101;28;20117;-74
2021/11/05 09:17:39;;;;;;;6.00;5.40;;;8.10;99.90;;;;;;5040813;28;20028;-73
2021/11/05 09:20:08;;;;;;;5.57;4.97;;;8.20;99.90;;;;;;5043945;28;20025;-74
2021/11/05 09:22:34;;;;;;;5.32;4.80;;;8.20;99.90;;;;;;5042069;28;20060;-73
2021/11/05 09:25:00;;;;;;;7.68;5.10;;;8.20;99.90;;;;;;5041089;28;20143;-73
2021/11/05 09:27:29;;;;;;;6.43;5.10;;;8.40;99.90;;;;;;5035721;28;20105;-74
2021/11/05 09:29:55;;;;;;;5.07;4.57;;;8.30;99.90;;;;;;5034714;28;20436;-73
2021/11/05 09:32:24;;;;;;;9.85;4.82;;;8.30;99.90;;;;;;5035302;28;20129;-72
2021/11/05 09:34:50;;;;;;;5.40;4.53;;;8.40;99.90;;;;;;5035013;28;20027;-71
2021/11/05 09:37:15;;;;;;;6.13;4.90;;;8.50;99.90;;;;;;5034813;28;20049;-72
2021/11/05 09:39:42;;;;;;;7.18;4.18;;;8.50;99.90;;;;;;5033077;28;20049;-72
2021/11/05 09:42:08;;;;;;;5.22;4.32;;;8.50;99.90;;;;;;5034855;28;20014;-72
2021/11/05 09:44:34;;;;;;;5.97;4.57;;;8.50;99.90;;;;;;5033691;28;20079;-75
2021/11/05 09:47:02;;;;;;;5.32;4.38;;;8.50;99.90;;;;;;5034182;28;20029;-72
2021/11/05 09:49:29;;;;;;;4.78;4.25;;;8.40;99.90;;;;;;5034100;28;20017;-72
2021/11/05 09:51:57;;;;;;;5.68;5.15;;;8.60;99.90;;;;;;5034644;28;20025;-72
2021/11/05 09:54:24;;;;;;;5.35;4.10;;;8.60;99.90;;;;;;5033721;28;20056;-74
2021/11/05 09:56:50;;;;;;;4.75;3.65;;;8.80;99.90;;;;;;5034163;28;20018;-73
2021/11/05 09:59:16;;;;;;;7.10;4.15;;;8.80;99.90;;;;;;5034149;28;20017;-72
2021/11/05 10:01:42;;;;;;;4.70;4.00;;;8.90;99.90;;;;;;5034834;28;20037;-73
2021/11/05 10:04:09;;;;;;;4.38;3.60;;;9.20;99.90;;;;;;5042012;28;20030;-75
2021/11/05 10:06:34;;;;;;;3.60;3.30;;;9.20;99.90;;;;;;5052274;28;20036;-74
2021/11/05 10:09:00;;;;;;;6.03;3.65;;;9.50;99.90;;;;;;5049045;28;20112;-73
2021/11/05 10:11:29;;;;;;;6.03;3.28;;;9.70;99.90;;;;;;5050679;28;20049;-73
2021/11/05 10:13:58;;;;;;;4.68;3.67;;;9.90;99.90;;;;;;5044339;28;20028;-74
2021/11/05 10:16:25;;;;;;;3.95;3.50;;;10.10;99.90;;;;;;5042625;28;20086;-73
2021/11/05 10:18:54;;;;;;;5.72;3.50;;;10.60;99.90;;;;;;5041003;28;20079;-72
2021/11/05 10:21:20;;;;;;;4.93;3.08;;;10.70;99.90;;;;;;5032642;28;20029;-73
2021/11/05 10:23:46;;;;;;;3.42;2.42;;;10.70;99.90;;;;;;5033747;28;20051;-72
2021/11/05 10:26:28;;;;;;;3.00;2.80;;;10.70;99.90;;;;;;5033355;28;20430;-73
2021/11/05 10:28:55;;;;;;;3.13;2.85;;;10.70;99.90;;;;;;5033652;28;20021;-72
2021/11/05 10:31:24;;;;;;;2.72;2.28;;;10.70;99.90;;;;;;5033437;28;20057;-71
2021/11/05 10:33:51;;;;;;;2.47;2.28;;;10.60;99.90;;;;;;5033681;28;20028;-73
2021/11/05 10:36:22;;;;;;;3.15;2.85;;;10.90;99.90;;;;;;5031850;28;20520;-73
2021/11/05 10:39:00;;;;;;;2.45;2.28;;;11.10;99.90;;;;;;5033176;28;20020;-74
2021/11/05 10:41:28;;;;;;;2.70;2.50;;;11.00;99.90;;;;;;5033605;28;20163;-72
2021/11/05 10:43:59;;;;;;;2.70;2.40;;;10.90;99.90;;;;;;5033590;28;20566;-73
2021/11/05 10:46:32;;;;;;;4.45;2.45;;;10.70;99.90;;;;;;5032524;28;20830;-71
2021/11/05 10:49:05;;;;;;;3.30;2.65;;;10.40;99.90;;;;;;5033191;28;20033;-79
2021/11/05 10:51:33;;;;;;;3.03;2.58;;;10.30;99.90;;;;;;5031948;28;20032;-77
2021/11/05 10:53:59;;;;;;;2.15;2.03;;;10.30;99.90;;;;;;5033362;28;20041;-79
2021/11/05 10:56:29;;;;;;;3.25;2.95;;;10.40;99.90;;;;;;5032926;28;20029;-79
2021/11/05 10:58:57;;;;;;;3.08;2.50;;;10.20;99.90;;;;;;5033965;28;20025;-80
2021/11/05 11:01:29;;;;;;;3.67;2.15;;;10.30;99.90;;;;;;5033848;28;20025;-73
2021/11/05 11:04:00;;;;;;;5.03;2.40;;;10.20;99.90;;;;;;5032651;28;20025;-73
2021/11/05 11:06:39;;;;;;;2.60;2.40;;;10.10;99.90;;;;;;5030284;28;20025;-73
2021/11/05 11:09:09;;;;;;;2.70;2.50;;;10.20;99.90;;;;;;5029768;28;20096;-74
2021/11/05 11:11:41;;;;;;;2.72;2.53;;;10.10;99.90;;;;;;5032716;28;20021;-73
2021/11/05 11:14:15;;;;;;;;;;;10.00;99.90;;;;;;5033159;28;20100;-74
2021/11/05 11:17:03;;;;;;;2.78;1.80;;;10.10;99.90;;;;;;5032731;28;20000;-72
2021/11/05 11:19:36;;;;;;;2.55;2.00;;;10.30;99.90;;;;;;5032744;28;20037;-73
2021/11/05 11:22:10;;;;;;;1.98;1.80;;;10.30;99.90;;;;;;5031143;28;20488;-72
2021/11/05 11:24:40;;;;;;;2.50;2.00;;;10.60;99.90;;;;;;5031730;28;20067;-73
2021/11/05 11:27:10;;;;;;;2.60;2.40;;;10.80;99.90;;;;;;5031484;28;20021;-73
2021/11/05 11:29:36;;;;;;;2.97;1.83;;;10.90;99.90;;;;;;5031579;28;20030;-73
2021/11/05 11:32:03;;;;;;;2.20;2.00;;;11.10;99.90;;;;;;5032164;28;20033;-73
2021/11/05 11:34:29;;;;;;;1.80;1.70;;;11.30;99.90;;;;;;5031983;28;20551;-72
2021/11/05 11:37:01;;;;;;;2.65;2.45;;;11.50;99.90;;;;;;5031920;28;20526;-74
2021/11/05 11:39:29;;;;;;;1.80;1.70;;;11.60;99.90;;;;;;5032360;28;20029;-72
2021/11/05 11:41:59;;;;;;;3.08;1.92;;;11.80;99.90;;;;;;5032131;28;20083;-74
2021/11/05 11:44:26;;;;;;;2.25;2.05;;;11.70;99.90;;;;;;5030139;28;20040;-72
2021/11/05 11:46:58;;;;;;;1.98;1.88;;;12.00;99.90;;;;;;5031900;28;20029;-74
2021/11/05 11:49:33;;;;;;;1.90;1.80;;;12.50;99.90;;;;;;5032235;28;20112;-73
2021/11/05 11:51:59;;;;;;;2.15;1.90;;;12.10;99.90;;;;;;5031923;28;20028;-73
2021/11/05 11:54:24;;;;;;;2.13;1.95;;;11.60;99.90;;;;;;5035195;28;20025;-72
2021/11/05 11:56:52;;;;;;;1.98;1.88;;;12.70;99.90;;;;;;5031589;28;20096;-72
2021/11/05 11:59:26;;;;;;;1.98;1.80;;;13.60;99.90;;;;;;5031937;28;20029;-72
2021/11/05 12:01:52;;;;;;;1.83;1.73;;;15.20;99.90;;;;;;5010581;28;20025;-69
2021/11/05 12:04:18;;;;;;;1.75;1.65;;;15.60;99.90;;;;;;5011326;28;20495;-69
2021/11/05 12:06:46;;;;;;;1.83;1.73;;;15.60;99.90;;;;;;5017375;28;20032;-69
2021/11/05 12:09:26;;;;;;;1.42;1.33;;;15.20;99.90;;;;;;5031362;28;20076;-69
2021/11/05 12:12:21;;;;;;;2.00;1.45;;;14.80;99.90;;;;;;5031586;28;20029;-69
2021/11/05 12:15:01;;;;;;;2.22;1.77;;;13.20;99.90;;;;;;5030958;28;20817;-67
2021/11/05 12:17:45;;;;;;;2.22;1.75;;;12.50;99.90;;;;;;5031794;28;20109;-66
2021/11/05 12:20:35;;;;;;;3.78;1.80;;;12.40;99.90;;;;;;5031713;28;20053;-67
2021/11/05 12:23:06;;;;;;;2.28;2.13;;;11.80;99.90;;;;;;5031162;28;20018;-67
2021/11/05 12:25:44;;;;;;;2.38;2.17;;;11.70;99.90;;;;;;5029061;28;20022;-66
2021/11/05 12:28:30;;;;;;;2.15;2.03;;;11.80;99.90;;;;;;5031894;28;20164;-66
2021/11/05 12:31:24;;;;;;;2.42;2.22;;;11.60;99.90;;;;;;5031307;28;20072;-66
2021/11/05 12:33:50;;;;;;;3.33;1.80;;;11.40;99.90;;;;;;5031437;28;20476;-66
2021/11/05 12:36:15;;;;;;;1.58;1.48;;;11.40;99.90;;;;;;5030713;28;20018;-67
2021/11/05 12:39:02;;;;;;;1.50;1.25;;;11.30;99.90;;;;;;5031471;28;20022;-67
2021/11/05 12:41:28;;;;;;;1.30;1.20;;;11.00;99.90;;;;;;5030840;28;20076;-67
2021/11/05 12:44:08;;;;;;;2.05;1.17;;;11.30;99.90;;;;;;5030495;28;20022;-67
2021/11/05 12:46:44;;;;;;;0.80;0.80;;;11.50;99.90;;;;;;5032561;28;20038;-66
2021/11/05 12:49:17;;;;;;;0.85;0.85;;;11.40;99.90;;;;;;5034765;28;20090;-66
2021/11/05 12:51:47;;;;;;;0.80;0.80;;;11.40;99.90;;;;;;5031999;28;20072;-66
2021/11/05 12:54:14;;;;;;;1.48;1.00;;;11.40;99.90;;;;;;5059225;22;20028;-68
2021/11/05 12:56:41;;;;;;;0.80;0.80;;;11.70;99.90;;;;;;5050817;28;20088;-69
2021/11/05 12:59:15;;;;;;;0.70;0.70;;;11.90;99.90;;;;;;5042536;28;20032;-71
2021/11/05 13:01:42;;;;;;;1.10;1.00;;;12.20;99.90;;;;;;5039455;28;20080;-71
2021/11/05 13:04:15;;;;;;;0.82;0.80;;;12.40;99.90;;;;;;5031211;28;20537;-70
2021/11/05 13:06:49;;;;;;;1.95;1.08;;;12.70;99.90;;;;;;5039323;28;20037;-71